首页
METAR-TAF:

METAR-TAF

机场 :

威奇托, 堪薩斯州, 美国

纬度: 37-37N, 经度: 097-16W, 海拔: 418米

当前天气观测

该预报发布于27分钟前的19:02 UTC
风速6节,风向东转东南
温度 24°C
湿度 78%
气压 1021 hPa
能見度: 16.1公里
散云层高于11000英尺
散云层高于16000英尺
散云层高于19000英尺

METAR: KIAB 191902Z AUTO 11006KT 10SM SCT110 SCT160 SCT190 24/20 A3014 RMK AO2 RAE00DZB00E02 SLP198 $

时间: 14:29 (19:29 UTC)

预报

该预报发布于31小时和59分钟前的11:30 UTC
预报有效从18日的 11点(UTC)到 19日的 16点(UTC)
风速20节,风向,有时为30节阵风
能见度10公里或以上
多云层高于3000英尺
成为
从 18日的 14点(UTC)到 18日的 15点(UTC)
风速15节,风向,有时为25节阵风
能见度10公里或以上
散云层高于5000英尺
短暂存在
从 18日的 15点(UTC)到 18日的 21点(UTC)
风速25节,风向,有时为35节阵风
成为
从 19日的 02点(UTC)到 19日的 03点(UTC)
风速12节,风向南转南东,有时为22节阵风
能见度10公里或以上
多云层高于2500英尺
成为
从 19日的 05点(UTC)到 19日的 06点(UTC)
风速12节,风向,有时为18节阵风
能见度10公里或以上
散云层高于2000英尺
多云层高于3000英尺
短暂存在
从 19日的 06点(UTC)到 19日的 10点(UTC)
能見度: 9000
附近有阵雨
成为
从 19日的 12点(UTC)到 19日的 13点(UTC)
风速9节,风向
能见度10公里或以上
散云层高于1000英尺
多云层高于2000英尺

TAF: KIAB 181130Z 1811/1916 19020G30KT 9999 BKN030 QNH2971INS BECMG 1814/1815 18015G25KT 9999 SCT050 QNH2976INS TEMPO 1815/1821 19025G35KT BECMG 1902/1903 16012G22KT 9999 BKN025 QNH2984INS BECMG 1905/1906 17012G18KT 9999 SCT020 BKN030 QNH2995INS TEMPO 1906/1910 9000 VCSH BECMG 1912/1913 18009KT 9999 SCT010 BKN020 QNH3004INS TX32/1821Z TN26/1812Z

超过4000个机场的气象观测和天气预报(METAR&TAF报告)。

可查询的气象台以黄色和红色小点在地图上表示。

将鼠标移到小点上方,可查看气象台名称。

然后点击查看天气观测和预报。

如需切换地图:点击带黑十字的绿色按钮放大地图;点击带横线的绿色按钮缩小地图;或者点击绿色箭头查看邻近地区的地图。


METAR-TAF: